createdAt,value
2023-04-30T00:00:28.388Z,20.60
2023-04-30T00:02:55.767Z,20.63
2023-04-30T00:05:22.693Z,19.70
2023-04-30T00:07:49.523Z,22.37
2023-04-30T00:10:16.412Z,22.20
2023-04-30T00:12:43.325Z,21.43
2023-04-30T00:15:10.611Z,19.83
2023-04-30T00:17:37.652Z,23.23
2023-04-30T00:20:05.170Z,22.37
2023-04-30T00:22:33.380Z,23.52
2023-04-30T00:25:00.489Z,22.52
2023-04-30T00:27:27.525Z,22.23
2023-04-30T00:29:55.183Z,26.23
2023-04-30T00:32:22.687Z,24.20
2023-04-30T00:34:49.589Z,23.80
2023-04-30T00:37:16.325Z,25.43
2023-04-30T00:39:44.152Z,21.90
2023-04-30T00:42:11.040Z,23.03
2023-04-30T00:44:38.382Z,22.03
2023-04-30T00:47:05.410Z,20.87
2023-04-30T00:49:32.319Z,19.43
2023-04-30T00:51:59.340Z,22.20
2023-04-30T00:54:26.411Z,20.80
2023-04-30T00:56:53.378Z,18.43
2023-04-30T00:59:20.313Z,20.38
2023-04-30T01:01:47.720Z,19.93
2023-04-30T01:04:14.785Z,16.60
2023-04-30T01:10:13.940Z,16.50
2023-04-30T01:12:53.568Z,14.40
2023-04-30T01:15:30.589Z,15.43
2023-04-30T01:18:07.773Z,16.43
2023-04-30T01:20:38.543Z,14.77
2023-04-30T01:23:36.224Z,15.15
2023-04-30T01:26:24.509Z,14.80
2023-04-30T01:28:54.511Z,17.35
2023-04-30T01:31:23.938Z,17.90
2023-04-30T01:33:50.972Z,18.47
2023-04-30T01:36:35.767Z,21.63
2023-04-30T01:39:24.526Z,18.40
2023-04-30T01:42:11.001Z,19.20
2023-04-30T01:44:44.067Z,21.23
2023-04-30T01:47:59.750Z,22.23
2023-04-30T01:50:32.451Z,28.37
2023-04-30T01:53:02.006Z,23.90
2023-04-30T01:55:38.171Z,25.30
2023-04-30T01:58:12.407Z,26.77
2023-04-30T02:00:39.535Z,28.43
2023-04-30T02:03:06.652Z,30.30
2023-04-30T02:05:33.966Z,27.70
2023-04-30T02:08:00.918Z,29.40
2023-04-30T02:10:30.357Z,27.53
2023-04-30T02:12:57.200Z,29.23
2023-04-30T02:15:24.181Z,24.90
2023-04-30T02:17:51.286Z,25.63
2023-04-30T02:20:18.636Z,23.40
2023-04-30T02:22:45.456Z,23.77
2023-04-30T02:25:14.988Z,21.07
2023-04-30T02:27:41.863Z,22.20
2023-04-30T02:30:09.087Z,21.70
2023-04-30T02:32:36.015Z,17.67
2023-04-30T02:35:03.141Z,19.40
2023-04-30T02:37:29.905Z,17.27
2023-04-30T02:39:57.449Z,17.00
2023-04-30T02:42:24.478Z,20.20
2023-04-30T02:44:51.355Z,16.40
2023-04-30T02:47:18.216Z,18.67
2023-04-30T02:49:45.026Z,17.43
2023-04-30T02:52:11.896Z,18.20
2023-04-30T02:54:38.748Z,23.43
2023-04-30T02:57:05.596Z,20.20
2023-04-30T02:59:32.389Z,20.47
2023-04-30T03:01:59.222Z,21.00
2023-04-30T03:04:26.309Z,22.40
2023-04-30T03:06:53.238Z,24.30
2023-04-30T03:09:20.003Z,21.63
2023-04-30T03:11:46.848Z,23.87
2023-04-30T03:14:13.729Z,20.00
2023-04-30T03:16:40.691Z,19.57
2023-04-30T03:19:07.645Z,21.27
2023-04-30T03:21:34.554Z,17.10
2023-04-30T03:24:01.324Z,21.67
2023-04-30T03:26:28.492Z,20.63
2023-04-30T03:28:55.921Z,24.30
2023-04-30T03:31:22.922Z,16.00
2023-04-30T03:33:50.026Z,18.67
2023-04-30T03:36:16.919Z,19.73
2023-04-30T03:38:43.991Z,17.13
2023-04-30T03:41:11.048Z,16.40
2023-04-30T03:43:38.191Z,18.37
2023-04-30T03:46:05.261Z,16.57
2023-04-30T03:48:32.237Z,15.93
2023-04-30T03:50:59.116Z,15.27
2023-04-30T03:53:26.710Z,18.80
2023-04-30T03:55:54.735Z,18.77
2023-04-30T03:58:22.134Z,18.07
2023-04-30T04:00:49.344Z,18.33
2023-04-30T04:03:16.897Z,19.63
2023-04-30T04:05:44.084Z,12.27
2023-04-30T04:08:11.000Z,20.47
2023-04-30T04:10:39.195Z,14.70
2023-04-30T04:13:06.964Z,19.57
2023-04-30T04:15:34.565Z,13.80
2023-04-30T04:18:01.685Z,19.00
2023-04-30T04:20:29.973Z,18.80
2023-04-30T04:22:57.331Z,16.93
2023-04-30T04:25:25.359Z,15.33
2023-04-30T04:27:52.493Z,18.33
2023-04-30T04:30:19.706Z,18.90
2023-04-30T04:32:49.395Z,19.03
2023-04-30T04:35:17.489Z,16.90
2023-04-30T04:37:44.632Z,20.77
2023-04-30T04:40:12.654Z,21.77
2023-04-30T04:42:39.632Z,19.33
2023-04-30T04:45:08.063Z,17.20
2023-04-30T04:47:35.013Z,19.27
2023-04-30T04:50:02.359Z,20.07
2023-04-30T04:52:29.337Z,18.23
2023-04-30T04:54:56.451Z,21.33
2023-04-30T04:57:23.567Z,23.87
2023-04-30T04:59:50.887Z,23.47
2023-04-30T05:02:17.729Z,19.77
2023-04-30T05:04:46.932Z,19.07
2023-04-30T05:07:13.888Z,17.60
2023-04-30T05:09:40.861Z,20.70
2023-04-30T05:12:07.701Z,22.37
2023-04-30T05:14:34.570Z,24.20
2023-04-30T05:17:01.379Z,20.80
2023-04-30T05:19:28.238Z,18.30
2023-04-30T05:21:55.021Z,21.63
2023-04-30T05:24:21.936Z,18.77
2023-04-30T05:26:48.795Z,19.67
2023-04-30T05:29:15.632Z,17.17
2023-04-30T05:31:42.486Z,17.73
2023-04-30T05:34:09.246Z,20.37
2023-04-30T05:36:36.091Z,16.53
2023-04-30T05:39:02.952Z,21.30
2023-04-30T05:41:29.785Z,16.13
2023-04-30T05:43:56.743Z,18.07
2023-04-30T05:46:23.620Z,15.87
2023-04-30T05:48:50.486Z,12.37
2023-04-30T05:51:17.303Z,17.83
2023-04-30T05:53:44.126Z,21.47
2023-04-30T05:56:11.035Z,13.67
2023-04-30T05:58:37.824Z,12.13
2023-04-30T06:01:05.317Z,12.00
2023-04-30T06:03:32.541Z,17.23
2023-04-30T06:05:59.703Z,21.00
2023-04-30T06:08:26.733Z,14.63
2023-04-30T06:10:53.481Z,15.87
2023-04-30T06:13:22.970Z,15.17
2023-04-30T06:15:49.854Z,12.17
2023-04-30T06:18:17.960Z,14.47
2023-04-30T06:20:44.734Z,15.77
2023-04-30T06:23:11.852Z,14.67
2023-04-30T06:25:39.436Z,13.60
2023-04-30T06:28:08.418Z,12.93
2023-04-30T06:30:35.406Z,16.30
2023-04-30T06:33:02.715Z,9.53
2023-04-30T06:35:29.534Z,9.43
2023-04-30T06:37:56.380Z,9.73
2023-04-30T06:40:23.148Z,9.60
2023-04-30T06:42:49.902Z,9.30
2023-04-30T06:45:16.670Z,11.80
2023-04-30T06:47:46.169Z,11.20
2023-04-30T06:50:13.248Z,9.03
2023-04-30T06:52:40.037Z,13.63
2023-04-30T06:55:07.718Z,8.57
2023-04-30T06:57:34.771Z,13.97
2023-04-30T07:00:02.330Z,8.13
2023-04-30T07:02:29.367Z,5.33
2023-04-30T07:04:56.401Z,7.50
2023-04-30T07:07:23.346Z,5.77
2023-04-30T07:09:51.802Z,7.10
2023-04-30T07:12:20.503Z,4.47
2023-04-30T07:14:47.252Z,5.70
2023-04-30T07:17:13.984Z,8.17
2023-04-30T07:19:40.719Z,10.57
2023-04-30T07:22:07.407Z,6.28
2023-04-30T07:24:34.716Z,6.77
2023-04-30T07:27:03.722Z,5.07
2023-04-30T07:29:30.713Z,7.70
2023-04-30T07:31:57.527Z,8.40
2023-04-30T07:34:25.593Z,5.90
2023-04-30T07:36:52.305Z,8.20
2023-04-30T07:39:19.025Z,6.97
2023-04-30T07:41:46.110Z,4.57
2023-04-30T07:44:12.891Z,4.93
2023-04-30T07:46:39.800Z,5.20
2023-04-30T07:49:06.637Z,9.53
2023-04-30T07:51:34.045Z,7.67
2023-04-30T07:54:01.176Z,4.23
2023-04-30T07:56:27.947Z,5.07
2023-04-30T07:58:54.648Z,6.37
2023-04-30T08:01:21.470Z,5.30
2023-04-30T08:03:48.418Z,6.30
2023-04-30T08:06:15.190Z,5.73
2023-04-30T08:08:41.993Z,5.00
2023-04-30T08:11:08.783Z,5.20
2023-04-30T08:13:36.401Z,5.23
2023-04-30T08:16:03.304Z,6.40
2023-04-30T08:18:32.252Z,6.20
2023-04-30T08:21:00.191Z,6.60
2023-04-30T08:23:27.508Z,5.47
2023-04-30T08:25:54.303Z,5.07
2023-04-30T08:28:21.149Z,5.37
2023-04-30T08:30:47.851Z,6.00
2023-04-30T08:33:14.631Z,5.47
2023-04-30T08:35:41.328Z,6.23
2023-04-30T08:38:08.444Z,5.73
2023-04-30T08:40:50.413Z,2.63
2023-04-30T08:43:18.845Z,4.40
2023-04-30T08:45:45.753Z,4.77
2023-04-30T08:48:15.213Z,3.47
2023-04-30T08:50:42.467Z,2.17
2023-04-30T08:53:11.026Z,3.40
2023-04-30T08:55:40.307Z,3.37
2023-04-30T08:58:10.310Z,3.17
2023-04-30T09:00:39.550Z,3.33
2023-04-30T09:03:08.270Z,2.17
2023-04-30T09:05:36.490Z,3.10
2023-04-30T09:08:04.274Z,3.23
2023-04-30T09:10:35.176Z,3.93
2023-04-30T09:13:10.333Z,2.20
2023-04-30T09:15:39.190Z,2.80
2023-04-30T09:18:19.740Z,7.00
2023-04-30T09:20:55.452Z,8.73
2023-04-30T09:23:22.450Z,3.90
2023-04-30T09:25:49.229Z,7.07
2023-04-30T09:28:16.601Z,7.17
2023-04-30T09:30:43.480Z,3.07
2023-04-30T09:33:11.924Z,4.63
2023-04-30T09:35:41.607Z,4.97
2023-04-30T09:38:24.802Z,4.77
2023-04-30T09:40:51.527Z,4.17
2023-04-30T09:43:18.282Z,3.72
2023-04-30T09:45:47.692Z,3.33
2023-04-30T09:48:22.334Z,3.00
2023-04-30T09:50:50.301Z,1.83
2023-04-30T09:53:20.164Z,3.63
2023-04-30T09:55:49.341Z,4.68
2023-04-30T09:58:18.236Z,2.97
2023-04-30T10:00:50.571Z,3.33
2023-04-30T10:03:17.465Z,4.60
2023-04-30T10:05:49.230Z,2.55
2023-04-30T10:08:30.885Z,4.40
2023-04-30T10:11:08.456Z,5.07
2023-04-30T10:13:41.185Z,1.47
2023-04-30T10:16:12.693Z,3.67
2023-04-30T10:18:42.404Z,2.30
2023-04-30T10:21:13.615Z,2.47
2023-04-30T10:23:43.504Z,4.93
2023-04-30T10:26:14.170Z,3.72
2023-04-30T10:28:41.487Z,2.20
2023-04-30T10:31:13.231Z,5.40
2023-04-30T10:34:06.342Z,1.33
2023-04-30T10:36:56.920Z,3.73
2023-04-30T10:39:27.624Z,4.03
2023-04-30T10:42:05.458Z,5.28
2023-04-30T10:44:34.998Z,8.05
2023-04-30T10:47:02.674Z,2.03
2023-04-30T10:49:30.031Z,2.70
2023-04-30T10:52:00.839Z,2.73
2023-04-30T10:54:33.153Z,2.47
2023-04-30T10:57:29.681Z,1.10
2023-04-30T11:00:08.616Z,1.98
2023-04-30T11:02:43.680Z,1.85
2023-04-30T11:05:11.995Z,10.55
2023-04-30T11:07:50.547Z,1.57
2023-04-30T11:10:22.126Z,3.23
2023-04-30T11:12:53.960Z,3.63
2023-04-30T11:15:24.443Z,6.03
2023-04-30T11:17:51.862Z,3.90
2023-04-30T11:20:24.453Z,4.50
2023-04-30T11:23:11.347Z,3.15
2023-04-30T11:25:46.095Z,1.38
2023-04-30T11:28:27.299Z,2.38
2023-04-30T11:30:56.099Z,4.38
2023-04-30T11:33:25.060Z,3.88
2023-04-30T11:35:53.120Z,7.10
2023-04-30T11:38:25.670Z,4.63
2023-04-30T11:40:54.201Z,2.95
2023-04-30T11:43:26.073Z,4.15
2023-04-30T11:46:10.723Z,3.63
2023-04-30T11:48:39.556Z,2.13
2023-04-30T11:51:12.460Z,3.05
2023-04-30T11:53:39.848Z,3.47
2023-04-30T11:56:07.192Z,4.50
2023-04-30T11:58:40.322Z,4.10
2023-04-30T12:01:09.708Z,2.67
2023-04-30T12:03:47.761Z,4.82
2023-04-30T12:06:29.230Z,4.05
2023-04-30T12:08:57.627Z,3.40
2023-04-30T12:11:27.416Z,4.15
2023-04-30T12:14:03.346Z,1.98
2023-04-30T12:16:51.904Z,6.30
2023-04-30T12:19:20.271Z,4.13
2023-04-30T12:21:49.079Z,2.45
2023-04-30T12:24:19.688Z,3.15
2023-04-30T12:26:48.000Z,4.75
2023-04-30T12:29:19.086Z,2.80
2023-04-30T12:31:50.267Z,4.22
2023-04-30T12:34:18.473Z,2.00
2023-04-30T12:36:45.744Z,3.47
2023-04-30T12:39:17.032Z,2.05
2023-04-30T12:41:49.153Z,3.20
2023-04-30T12:44:24.723Z,3.55
2023-04-30T12:46:57.344Z,1.40
2023-04-30T12:49:28.518Z,2.10
2023-04-30T12:52:07.466Z,2.38
2023-04-30T12:54:34.944Z,4.90
2023-04-30T12:57:05.448Z,2.75
2023-04-30T12:59:35.916Z,3.22
2023-04-30T13:02:13.905Z,3.55
2023-04-30T13:04:42.569Z,2.67
2023-04-30T13:07:09.780Z,2.45
2023-04-30T13:09:37.954Z,1.83
2023-04-30T13:12:04.966Z,1.95
2023-04-30T13:14:32.216Z,2.85
2023-04-30T13:16:59.501Z,2.88
2023-04-30T13:19:26.894Z,2.88
2023-04-30T13:21:53.679Z,3.22
2023-04-30T13:24:20.453Z,2.95
2023-04-30T13:26:48.121Z,3.80
2023-04-30T13:29:14.990Z,4.60
2023-04-30T13:31:42.476Z,1.83
2023-04-30T13:34:09.895Z,2.08
2023-04-30T13:36:36.927Z,3.67
2023-04-30T13:39:04.845Z,1.80
2023-04-30T13:41:32.067Z,4.25
2023-04-30T13:44:00.198Z,2.58
2023-04-30T13:46:27.076Z,1.67
2023-04-30T13:48:53.900Z,3.20
2023-04-30T13:51:20.998Z,3.22
2023-04-30T13:53:48.118Z,5.43
2023-04-30T13:56:15.514Z,1.83
2023-04-30T13:58:42.400Z,2.92
2023-04-30T14:01:10.442Z,2.65
2023-04-30T14:03:37.526Z,2.67
2023-04-30T14:06:05.852Z,2.55
2023-04-30T14:08:33.856Z,1.92
2023-04-30T14:11:01.656Z,3.80
2023-04-30T14:13:28.511Z,1.85
2023-04-30T14:15:56.123Z,4.50
2023-04-30T14:18:23.133Z,2.85
2023-04-30T14:20:50.077Z,1.60
2023-04-30T14:23:16.757Z,3.97
2023-04-30T14:25:44.503Z,3.42
2023-04-30T14:28:11.889Z,3.38
2023-04-30T14:30:38.811Z,2.80
2023-04-30T14:33:05.606Z,5.13
2023-04-30T14:35:33.567Z,3.17
2023-04-30T14:38:00.399Z,2.28
2023-04-30T14:40:27.202Z,2.92
2023-04-30T14:42:53.933Z,4.57
2023-04-30T14:45:20.828Z,4.85
2023-04-30T14:47:47.620Z,3.75
2023-04-30T14:50:14.446Z,1.73
2023-04-30T14:52:42.143Z,2.55
2023-04-30T14:55:09.236Z,3.40
2023-04-30T14:57:36.538Z,2.67
2023-04-30T15:00:04.239Z,4.50
2023-04-30T15:02:31.346Z,3.95
2023-04-30T15:04:58.108Z,4.35
2023-04-30T15:07:24.820Z,1.63
2023-04-30T15:09:52.778Z,1.73
2023-04-30T15:12:20.116Z,1.63
2023-04-30T15:14:46.912Z,2.38
2023-04-30T15:17:13.793Z,2.42
2023-04-30T15:19:40.481Z,4.75
2023-04-30T15:22:07.668Z,2.05
2023-04-30T15:24:34.562Z,5.20
2023-04-30T15:27:01.323Z,2.25
2023-04-30T15:29:28.059Z,2.70
2023-04-30T15:31:54.860Z,2.60
2023-04-30T15:34:22.779Z,2.83
2023-04-30T15:36:50.125Z,7.22
2023-04-30T15:39:17.842Z,5.57
2023-04-30T15:41:47.602Z,1.42
2023-04-30T15:44:14.340Z,4.70
2023-04-30T15:46:41.990Z,2.30
2023-04-30T15:49:08.958Z,2.60
2023-04-30T15:51:36.711Z,5.30
2023-04-30T15:54:03.480Z,2.95
2023-04-30T15:56:30.551Z,6.25
2023-04-30T15:58:57.462Z,2.28
2023-04-30T16:01:24.225Z,2.63
2023-04-30T16:03:51.363Z,4.63
2023-04-30T16:06:18.734Z,3.33
2023-04-30T16:08:46.388Z,3.67
2023-04-30T16:11:13.213Z,3.85
2023-04-30T16:13:40.051Z,3.47
2023-04-30T16:16:08.770Z,4.85
2023-04-30T16:18:35.627Z,2.42
2023-04-30T16:21:02.589Z,3.83
2023-04-30T16:23:29.425Z,5.20
2023-04-30T16:25:56.504Z,4.00
2023-04-30T16:28:23.672Z,2.78
2023-04-30T16:30:50.859Z,3.00
2023-04-30T16:33:17.911Z,3.80
2023-04-30T16:35:44.827Z,3.17
2023-04-30T16:38:11.652Z,3.75
2023-04-30T16:40:38.520Z,3.55
2023-04-30T16:43:06.267Z,2.83
2023-04-30T16:45:33.362Z,6.05
2023-04-30T16:48:00.476Z,2.88
2023-04-30T16:50:27.511Z,6.20
2023-04-30T16:52:54.483Z,2.78
2023-04-30T16:55:21.315Z,5.07
2023-04-30T16:57:48.034Z,4.53
2023-04-30T17:00:17.063Z,6.15
2023-04-30T17:02:45.724Z,3.20
2023-04-30T17:05:12.769Z,4.28
2023-04-30T17:07:39.483Z,5.82
2023-04-30T17:10:07.250Z,5.90
2023-04-30T17:12:33.984Z,8.13
2023-04-30T17:15:00.711Z,8.60
2023-04-30T17:17:27.403Z,5.47
2023-04-30T17:19:54.256Z,11.77
2023-04-30T17:22:21.161Z,11.45
2023-04-30T17:24:47.976Z,8.40
2023-04-30T17:27:14.802Z,7.30
2023-04-30T17:29:42.114Z,8.93
2023-04-30T17:32:10.530Z,7.78
2023-04-30T17:34:38.181Z,6.00
2023-04-30T17:37:04.927Z,8.70
2023-04-30T17:39:32.546Z,5.57
2023-04-30T17:41:59.514Z,9.18
2023-04-30T17:44:26.351Z,7.83
2023-04-30T17:46:53.831Z,4.03
2023-04-30T17:49:20.690Z,5.87
2023-04-30T17:51:48.367Z,6.43
2023-04-30T17:54:15.065Z,8.67
2023-04-30T17:56:41.785Z,6.57
2023-04-30T17:59:08.588Z,7.47
2023-04-30T18:01:35.347Z,9.32
2023-04-30T18:04:03.752Z,8.33
2023-04-30T18:06:31.239Z,12.23
2023-04-30T18:09:01.183Z,12.20
2023-04-30T18:11:28.253Z,12.00
2023-04-30T18:13:54.975Z,14.17
2023-04-30T18:16:21.804Z,11.73
2023-04-30T18:18:48.550Z,11.97
2023-04-30T18:21:15.325Z,14.07
2023-04-30T18:23:42.026Z,12.80
2023-04-30T18:26:08.717Z,17.63
2023-04-30T18:28:36.843Z,15.33
2023-04-30T18:31:03.686Z,15.63
2023-04-30T18:33:30.403Z,13.43
2023-04-30T18:35:57.231Z,13.67
2023-04-30T18:38:24.546Z,13.23
2023-04-30T18:40:55.801Z,17.13
2023-04-30T18:43:23.406Z,13.90
2023-04-30T18:45:50.139Z,9.10
2023-04-30T18:48:19.019Z,7.93
2023-04-30T18:50:46.628Z,10.07
2023-04-30T18:53:13.509Z,10.53
2023-04-30T18:55:40.331Z,10.23
2023-04-30T18:58:08.288Z,12.73
2023-04-30T19:00:35.006Z,14.23
2023-04-30T19:03:01.880Z,11.73
2023-04-30T19:05:28.668Z,10.90
2023-04-30T19:07:55.388Z,11.43
2023-04-30T19:10:22.096Z,15.13
2023-04-30T19:12:49.342Z,20.57
2023-04-30T19:15:17.830Z,21.47
2023-04-30T19:17:44.708Z,20.53
2023-04-30T19:20:12.193Z,17.07
2023-04-30T19:22:39.202Z,14.07
2023-04-30T19:25:06.711Z,18.83
2023-04-30T19:27:33.406Z,13.07
2023-04-30T19:30:00.232Z,13.23
2023-04-30T19:32:27.257Z,14.70
2023-04-30T19:34:54.241Z,16.87
2023-04-30T19:37:20.988Z,20.17
2023-04-30T19:39:47.709Z,25.17
2023-04-30T19:42:15.019Z,22.70
2023-04-30T19:44:41.756Z,17.87
2023-04-30T19:47:08.471Z,19.73
2023-04-30T19:49:35.170Z,20.53
2023-04-30T19:52:02.351Z,26.10
2023-04-30T19:54:29.090Z,23.13
2023-04-30T19:56:55.883Z,29.00
2023-04-30T19:59:22.693Z,31.20
2023-04-30T20:01:49.589Z,31.17
2023-04-30T20:04:16.670Z,26.23
2023-04-30T20:06:44.682Z,21.90
2023-04-30T20:09:11.728Z,18.73
2023-04-30T20:11:38.602Z,14.77
2023-04-30T20:14:05.443Z,16.73
2023-04-30T20:16:32.548Z,17.97
2023-04-30T20:18:59.463Z,23.50
2023-04-30T20:21:26.212Z,18.77
2023-04-30T20:23:52.907Z,23.13
2023-04-30T20:26:21.476Z,15.10
2023-04-30T20:28:48.385Z,16.93
2023-04-30T20:31:15.350Z,16.13
2023-04-30T20:33:42.379Z,18.70
2023-04-30T20:36:09.081Z,14.03
2023-04-30T20:38:36.163Z,15.70
2023-04-30T20:41:02.947Z,15.00
2023-04-30T20:43:29.689Z,16.70
2023-04-30T20:45:58.884Z,19.57
2023-04-30T20:48:26.530Z,21.90
2023-04-30T20:50:53.261Z,20.00
2023-04-30T20:53:21.137Z,22.10
2023-04-30T20:55:47.849Z,21.00
2023-04-30T20:58:14.610Z,21.40
2023-04-30T21:00:41.457Z,22.53
2023-04-30T21:03:09.722Z,23.70
2023-04-30T21:05:36.603Z,20.27
2023-04-30T21:08:03.417Z,21.30
2023-04-30T21:10:36.448Z,25.37
2023-04-30T21:13:05.804Z,24.53
2023-04-30T21:15:35.717Z,26.23
2023-04-30T21:18:02.828Z,26.03
2023-04-30T21:20:31.417Z,22.87
2023-04-30T21:22:58.411Z,25.63
2023-04-30T21:25:25.173Z,23.47
2023-04-30T21:27:52.275Z,25.80
2023-04-30T21:30:19.194Z,22.83
2023-04-30T21:32:49.229Z,23.53
2023-04-30T21:35:16.136Z,23.83
2023-04-30T21:37:42.925Z,27.03
2023-04-30T21:40:10.210Z,27.67
2023-04-30T21:42:37.009Z,31.20
2023-04-30T21:45:04.823Z,28.37
2023-04-30T21:47:31.766Z,35.10
2023-04-30T21:49:59.154Z,33.73
2023-04-30T21:52:26.123Z,31.27
2023-04-30T21:54:52.848Z,38.27
2023-04-30T21:57:19.649Z,30.63
2023-04-30T21:59:46.433Z,31.27
2023-04-30T22:04:46.935Z,27.67
2023-04-30T22:07:13.806Z,24.60
2023-04-30T22:09:40.619Z,31.67
2023-04-30T22:12:09.181Z,28.13
2023-04-30T22:14:36.033Z,26.03
2023-04-30T22:17:02.804Z,30.70
2023-04-30T22:19:29.872Z,29.37
2023-04-30T22:21:56.732Z,27.13
2023-04-30T22:24:23.478Z,30.73
2023-04-30T22:26:50.244Z,33.47
2023-04-30T22:29:16.968Z,21.73
2023-04-30T22:31:43.789Z,24.83
2023-04-30T22:34:10.871Z,27.97
2023-04-30T22:36:37.690Z,23.93
2023-04-30T22:39:04.847Z,27.90
2023-04-30T22:41:34.284Z,25.63
2023-04-30T22:44:01.762Z,25.87
2023-04-30T22:46:29.866Z,25.50
2023-04-30T22:48:56.790Z,24.60
2023-04-30T22:51:23.574Z,25.13
2023-04-30T22:53:50.511Z,22.87
2023-04-30T22:56:17.254Z,21.97
2023-04-30T22:58:43.970Z,23.00
2023-04-30T23:01:10.739Z,27.93
2023-04-30T23:03:38.725Z,23.70
2023-04-30T23:06:05.582Z,25.40
2023-04-30T23:08:32.301Z,21.47
2023-04-30T23:10:59.078Z,20.00
2023-04-30T23:13:25.825Z,20.27
2023-04-30T23:15:56.673Z,22.20
2023-04-30T23:18:23.858Z,19.27
2023-04-30T23:20:50.738Z,18.70
2023-04-30T23:23:17.442Z,15.23
2023-04-30T23:25:44.193Z,21.63
2023-04-30T23:28:10.960Z,19.50
2023-04-30T23:30:39.157Z,15.13
2023-04-30T23:33:05.945Z,19.73
2023-04-30T23:35:32.824Z,17.43
2023-04-30T23:37:59.522Z,18.07
2023-04-30T23:40:26.279Z,20.93
2023-04-30T23:42:52.985Z,16.23
2023-04-30T23:45:20.837Z,17.23
2023-04-30T23:47:47.684Z,18.50
2023-04-30T23:50:15.040Z,15.83
2023-04-30T23:52:41.738Z,13.40
2023-04-30T23:55:08.760Z,16.70
2023-04-30T23:57:35.686Z,13.53
